In Rescue
 
Open Full Screen Window  High Contrast Mode
November 20, 2019 2:55 AM EST
Weather Information
Wind Direction
  ---
Wind Speed
  00 kt (0 mph)
Wind Gust
  00 kt (0 mph)
Altimeter
30.03 in
Visibility
10 SM
Temperature
03° C
37° F
Dewpoint
01° C
34° F
Humidity
87%
1hr Rain Fall
00.00 in.
24hr Rain Fall
00.00 in.
Sky Condition
Overcast @ 3,400 ft
Broken @ 2,800 ft
MVFR

METAR KMRT 200755Z AUTO 00000KT 10SM BKN028 OVC034 03/01 A3003 RMK AO2 T00300005

FAA Disclaimer: The data displayed is for advisory purposes only and is not to be used for flight planning or operations.